sensor_id;sensor_type;location;lat;lon;timestamp;temperature;humidity
18741;DHT22;9499;52.472;13.448;2022-08-23T00:01:30;20.20;99.90
18741;DHT22;9499;52.472;13.448;2022-08-23T00:03:59;20.20;99.90
18741;DHT22;9499;52.472;13.448;2022-08-23T00:06:27;20.20;99.90
18741;DHT22;9499;52.472;13.448;2022-08-23T00:08:55;20.20;99.90
18741;DHT22;9499;52.472;13.448;2022-08-23T00:11:27;20.20;99.90
18741;DHT22;9499;52.472;13.448;2022-08-23T00:13:54;20.10;99.90
18741;DHT22;9499;52.472;13.448;2022-08-23T00:16:21;20.10;99.90
18741;DHT22;9499;52.472;13.448;2022-08-23T00:18:48;20.20;99.90
18741;DHT22;9499;52.472;13.448;2022-08-23T00:21:14;20.20;99.90
18741;DHT22;9499;52.472;13.448;2022-08-23T00:23:41;20.10;99.90
18741;DHT22;9499;52.472;13.448;2022-08-23T00:26:09;20.10;99.90
18741;DHT22;9499;52.472;13.448;2022-08-23T00:28:36;20.20;99.90
18741;DHT22;9499;52.472;13.448;2022-08-23T00:31:03;20.10;99.90
18741;DHT22;9499;52.472;13.448;2022-08-23T00:33:30;20.20;99.90
18741;DHT22;9499;52.472;13.448;2022-08-23T00:35:57;20.20;99.90
18741;DHT22;9499;52.472;13.448;2022-08-23T00:38:23;20.10;99.90
18741;DHT22;9499;52.472;13.448;2022-08-23T00:40:51;20.10;99.90
18741;DHT22;9499;52.472;13.448;2022-08-23T00:43:25;20.10;99.90
18741;DHT22;9499;52.472;13.448;2022-08-23T00:46:16;20.10;99.90
18741;DHT22;9499;52.472;13.448;2022-08-23T00:49:08;20.00;99.90
18741;DHT22;9499;52.472;13.448;2022-08-23T00:51:42;20.00;99.90
18741;DHT22;9499;52.472;13.448;2022-08-23T00:54:11;19.90;99.90
18741;DHT22;9499;52.472;13.448;2022-08-23T00:56:40;19.90;99.90
18741;DHT22;9499;52.472;13.448;2022-08-23T00:59:09;19.90;99.90
18741;DHT22;9499;52.472;13.448;2022-08-23T01:01:35;19.90;99.90
18741;DHT22;9499;52.472;13.448;2022-08-23T01:04:02;19.90;99.90
18741;DHT22;9499;52.472;13.448;2022-08-23T01:06:32;19.80;99.90
18741;DHT22;9499;52.472;13.448;2022-08-23T01:09:05;19.80;99.90
18741;DHT22;9499;52.472;13.448;2022-08-23T01:11:36;19.80;99.90
18741;DHT22;9499;52.472;13.448;2022-08-23T01:14:09;19.80;99.90
18741;DHT22;9499;52.472;13.448;2022-08-23T01:16:40;19.70;99.90
18741;DHT22;9499;52.472;13.448;2022-08-23T01:19:15;19.70;99.90
18741;DHT22;9499;52.472;13.448;2022-08-23T01:21:48;19.70;99.90
18741;DHT22;9499;52.472;13.448;2022-08-23T01:24:19;19.70;99.90
18741;DHT22;9499;52.472;13.448;2022-08-23T01:26:46;19.60;99.90
18741;DHT22;9499;52.472;13.448;2022-08-23T01:29:13;19.60;99.90
18741;DHT22;9499;52.472;13.448;2022-08-23T01:31:41;19.60;99.90
18741;DHT22;9499;52.472;13.448;2022-08-23T01:34:11;19.60;99.90
18741;DHT22;9499;52.472;13.448;2022-08-23T01:36:38;19.60;99.90
18741;DHT22;9499;52.472;13.448;2022-08-23T01:39:06;19.70;99.90
18741;DHT22;9499;52.472;13.448;2022-08-23T01:41:34;19.70;99.90
18741;DHT22;9499;52.472;13.448;2022-08-23T01:44:03;19.70;99.90
18741;DHT22;9499;52.472;13.448;2022-08-23T01:46:30;19.70;99.90
18741;DHT22;9499;52.472;13.448;2022-08-23T01:48:56;19.70;99.90
18741;DHT22;9499;52.472;13.448;2022-08-23T01:51:24;19.60;99.90
18741;DHT22;9499;52.472;13.448;2022-08-23T01:53:51;19.60;99.90
18741;DHT22;9499;52.472;13.448;2022-08-23T01:56:18;19.60;99.90
18741;DHT22;9499;52.472;13.448;2022-08-23T01:58:47;19.60;99.90
18741;DHT22;9499;52.472;13.448;2022-08-23T02:01:14;19.60;99.90
18741;DHT22;9499;52.472;13.448;2022-08-23T02:03:41;19.60;99.90
18741;DHT22;9499;52.472;13.448;2022-08-23T02:06:09;19.40;99.90
18741;DHT22;9499;52.472;13.448;2022-08-23T02:08:35;19.40;99.90
18741;DHT22;9499;52.472;13.448;2022-08-23T02:11:21;19.40;99.90
18741;DHT22;9499;52.472;13.448;2022-08-23T02:13:51;19.50;99.90
18741;DHT22;9499;52.472;13.448;2022-08-23T02:16:22;19.50;99.90
18741;DHT22;9499;52.472;13.448;2022-08-23T02:18:49;19.50;99.90
18741;DHT22;9499;52.472;13.448;2022-08-23T02:21:16;19.50;99.90
18741;DHT22;9499;52.472;13.448;2022-08-23T02:23:44;19.50;99.90
18741;DHT22;9499;52.472;13.448;2022-08-23T02:26:10;19.50;99.90
18741;DHT22;9499;52.472;13.448;2022-08-23T02:28:37;19.50;99.90
18741;DHT22;9499;52.472;13.448;2022-08-23T02:31:05;19.50;99.90
18741;DHT22;9499;52.472;13.448;2022-08-23T02:33:32;19.50;99.90
18741;DHT22;9499;52.472;13.448;2022-08-23T02:35:58;19.50;99.90
18741;DHT22;9499;52.472;13.448;2022-08-23T02:38:25;19.50;99.90
18741;DHT22;9499;52.472;13.448;2022-08-23T02:40:52;19.50;99.90
18741;DHT22;9499;52.472;13.448;2022-08-23T02:43:18;19.50;99.90
18741;DHT22;9499;52.472;13.448;2022-08-23T02:45:45;19.40;99.90
18741;DHT22;9499;52.472;13.448;2022-08-23T02:48:13;19.40;99.90
18741;DHT22;9499;52.472;13.448;2022-08-23T02:50:39;19.40;99.90
18741;DHT22;9499;52.472;13.448;2022-08-23T02:53:06;19.40;99.90
18741;DHT22;9499;52.472;13.448;2022-08-23T02:55:33;19.40;99.90
18741;DHT22;9499;52.472;13.448;2022-08-23T02:57:59;19.50;99.90
18741;DHT22;9499;52.472;13.448;2022-08-23T03:00:26;19.50;99.90
18741;DHT22;9499;52.472;13.448;2022-08-23T03:02:52;19.50;99.90
18741;DHT22;9499;52.472;13.448;2022-08-23T03:05:21;19.50;99.90
18741;DHT22;9499;52.472;13.448;2022-08-23T03:07:47;19.50;99.90
18741;DHT22;9499;52.472;13.448;2022-08-23T03:10:14;19.50;99.90
18741;DHT22;9499;52.472;13.448;2022-08-23T03:12:41;19.50;99.90
18741;DHT22;9499;52.472;13.448;2022-08-23T03:15:08;19.40;99.90
18741;DHT22;9499;52.472;13.448;2022-08-23T03:17:35;19.50;99.90
18741;DHT22;9499;52.472;13.448;2022-08-23T03:20:03;19.40;99.90
18741;DHT22;9499;52.472;13.448;2022-08-23T03:22:31;19.50;99.90
18741;DHT22;9499;52.472;13.448;2022-08-23T03:24:57;19.50;99.90
18741;DHT22;9499;52.472;13.448;2022-08-23T03:27:24;19.50;99.90
18741;DHT22;9499;52.472;13.448;2022-08-23T03:29:51;19.50;99.90
18741;DHT22;9499;52.472;13.448;2022-08-23T03:32:17;19.50;99.90
18741;DHT22;9499;52.472;13.448;2022-08-23T03:34:44;19.50;99.90
18741;DHT22;9499;52.472;13.448;2022-08-23T03:37:10;19.50;99.90
18741;DHT22;9499;52.472;13.448;2022-08-23T03:39:38;19.40;99.90
18741;DHT22;9499;52.472;13.448;2022-08-23T03:42:05;19.50;99.90
18741;DHT22;9499;52.472;13.448;2022-08-23T03:44:32;19.50;99.90
18741;DHT22;9499;52.472;13.448;2022-08-23T03:46:59;19.50;99.90
18741;DHT22;9499;52.472;13.448;2022-08-23T03:49:26;19.50;99.90
18741;DHT22;9499;52.472;13.448;2022-08-23T03:51:53;19.50;99.90
18741;DHT22;9499;52.472;13.448;2022-08-23T03:54:19;19.50;99.90
18741;DHT22;9499;52.472;13.448;2022-08-23T03:56:53;19.50;99.90
18741;DHT22;9499;52.472;13.448;2022-08-23T03:59:20;19.50;99.90
18741;DHT22;9499;52.472;13.448;2022-08-23T04:01:47;19.40;99.90
18741;DHT22;9499;52.472;13.448;2022-08-23T04:04:13;19.40;99.90
18741;DHT22;9499;52.472;13.448;2022-08-23T04:06:40;19.40;99.90
18741;DHT22;9499;52.472;13.448;2022-08-23T04:09:09;19.50;99.90
18741;DHT22;9499;52.472;13.448;2022-08-23T04:11:36;19.40;99.90
18741;DHT22;9499;52.472;13.448;2022-08-23T04:14:04;19.40;99.90
18741;DHT22;9499;52.472;13.448;2022-08-23T04:16:31;19.40;99.90
18741;DHT22;9499;52.472;13.448;2022-08-23T04:19:01;19.40;99.90
18741;DHT22;9499;52.472;13.448;2022-08-23T04:21:28;19.40;99.90
18741;DHT22;9499;52.472;13.448;2022-08-23T04:23:55;19.40;99.90
18741;DHT22;9499;52.472;13.448;2022-08-23T04:26:21;19.40;99.90
18741;DHT22;9499;52.472;13.448;2022-08-23T04:28:48;19.40;99.90
18741;DHT22;9499;52.472;13.448;2022-08-23T04:31:17;19.40;99.90
18741;DHT22;9499;52.472;13.448;2022-08-23T04:33:44;19.40;99.90
18741;DHT22;9499;52.472;13.448;2022-08-23T04:36:11;19.40;99.90
18741;DHT22;9499;52.472;13.448;2022-08-23T04:38:38;19.50;99.90
18741;DHT22;9499;52.472;13.448;2022-08-23T04:41:05;19.40;99.90
18741;DHT22;9499;52.472;13.448;2022-08-23T04:43:49;19.40;99.90
18741;DHT22;9499;52.472;13.448;2022-08-23T04:46:17;19.40;99.90
18741;DHT22;9499;52.472;13.448;2022-08-23T04:48:45;19.40;99.90
18741;DHT22;9499;52.472;13.448;2022-08-23T04:51:12;19.40;99.90
18741;DHT22;9499;52.472;13.448;2022-08-23T04:53:39;19.40;99.90
18741;DHT22;9499;52.472;13.448;2022-08-23T04:56:06;19.50;99.90
18741;DHT22;9499;52.472;13.448;2022-08-23T04:58:34;19.40;99.90
18741;DHT22;9499;52.472;13.448;2022-08-23T05:01:04;19.40;99.90
18741;DHT22;9499;52.472;13.448;2022-08-23T05:03:33;19.40;99.90
18741;DHT22;9499;52.472;13.448;2022-08-23T05:06:00;19.40;99.90
18741;DHT22;9499;52.472;13.448;2022-08-23T05:08:29;19.40;99.90
18741;DHT22;9499;52.472;13.448;2022-08-23T05:10:59;19.50;99.90
18741;DHT22;9499;52.472;13.448;2022-08-23T05:13:26;19.50;99.90
18741;DHT22;9499;52.472;13.448;2022-08-23T05:15:53;19.60;99.90
18741;DHT22;9499;52.472;13.448;2022-08-23T05:18:19;19.50;99.90
18741;DHT22;9499;52.472;13.448;2022-08-23T05:20:47;19.50;99.90
18741;DHT22;9499;52.472;13.448;2022-08-23T05:23:14;19.50;99.90
18741;DHT22;9499;52.472;13.448;2022-08-23T05:25:41;19.50;99.90
18741;DHT22;9499;52.472;13.448;2022-08-23T05:28:18;19.50;99.90
18741;DHT22;9499;52.472;13.448;2022-08-23T05:30:53;19.50;99.90
18741;DHT22;9499;52.472;13.448;2022-08-23T05:33:20;19.50;99.90
18741;DHT22;9499;52.472;13.448;2022-08-23T05:35:48;19.50;99.90
18741;DHT22;9499;52.472;13.448;2022-08-23T05:38:14;19.50;99.90
18741;DHT22;9499;52.472;13.448;2022-08-23T05:40:41;19.50;99.90
18741;DHT22;9499;52.472;13.448;2022-08-23T05:43:07;19.50;99.90
18741;DHT22;9499;52.472;13.448;2022-08-23T05:45:34;19.50;99.90
18741;DHT22;9499;52.472;13.448;2022-08-23T05:48:01;19.60;99.90
18741;DHT22;9499;52.472;13.448;2022-08-23T05:50:28;19.70;99.90
18741;DHT22;9499;52.472;13.448;2022-08-23T05:52:56;19.70;99.90
18741;DHT22;9499;52.472;13.448;2022-08-23T05:55:22;19.70;99.90
18741;DHT22;9499;52.472;13.448;2022-08-23T05:57:49;19.70;99.90
18741;DHT22;9499;52.472;13.448;2022-08-23T06:00:15;19.70;99.90
18741;DHT22;9499;52.472;13.448;2022-08-23T06:02:42;19.70;99.90
18741;DHT22;9499;52.472;13.448;2022-08-23T06:05:09;19.70;99.90
18741;DHT22;9499;52.472;13.448;2022-08-23T06:07:36;19.70;99.90
18741;DHT22;9499;52.472;13.448;2022-08-23T06:10:05;19.70;99.90
18741;DHT22;9499;52.472;13.448;2022-08-23T06:12:32;19.70;99.90
18741;DHT22;9499;52.472;13.448;2022-08-23T06:14:59;19.70;99.90
18741;DHT22;9499;52.472;13.448;2022-08-23T06:17:26;19.70;99.90
18741;DHT22;9499;52.472;13.448;2022-08-23T06:19:52;19.80;99.90
18741;DHT22;9499;52.472;13.448;2022-08-23T06:22:19;19.80;99.90
18741;DHT22;9499;52.472;13.448;2022-08-23T06:24:46;19.80;99.90
18741;DHT22;9499;52.472;13.448;2022-08-23T06:27:14;19.80;99.90
18741;DHT22;9499;52.472;13.448;2022-08-23T06:29:40;19.80;99.90
18741;DHT22;9499;52.472;13.448;2022-08-23T06:32:07;19.90;99.90
18741;DHT22;9499;52.472;13.448;2022-08-23T06:34:35;19.90;99.90
18741;DHT22;9499;52.472;13.448;2022-08-23T06:37:04;20.00;99.90
18741;DHT22;9499;52.472;13.448;2022-08-23T06:39:32;20.00;99.90
18741;DHT22;9499;52.472;13.448;2022-08-23T06:41:59;20.00;99.90
18741;DHT22;9499;52.472;13.448;2022-08-23T06:44:28;20.10;99.90
18741;DHT22;9499;52.472;13.448;2022-08-23T06:46:55;20.10;99.90
18741;DHT22;9499;52.472;13.448;2022-08-23T06:49:23;20.20;99.90
18741;DHT22;9499;52.472;13.448;2022-08-23T06:51:51;20.30;99.90
18741;DHT22;9499;52.472;13.448;2022-08-23T06:54:22;20.30;99.90
18741;DHT22;9499;52.472;13.448;2022-08-23T06:56:49;20.30;99.90
18741;DHT22;9499;52.472;13.448;2022-08-23T06:59:17;20.40;99.90
18741;DHT22;9499;52.472;13.448;2022-08-23T07:01:47;20.50;99.90
18741;DHT22;9499;52.472;13.448;2022-08-23T07:04:17;20.50;99.90
18741;DHT22;9499;52.472;13.448;2022-08-23T07:06:44;20.60;99.90
18741;DHT22;9499;52.472;13.448;2022-08-23T07:09:10;20.60;99.90
18741;DHT22;9499;52.472;13.448;2022-08-23T07:11:37;20.70;99.90
18741;DHT22;9499;52.472;13.448;2022-08-23T07:14:06;20.70;99.90
18741;DHT22;9499;52.472;13.448;2022-08-23T07:16:35;20.80;99.90
18741;DHT22;9499;52.472;13.448;2022-08-23T07:19:03;20.80;99.90
18741;DHT22;9499;52.472;13.448;2022-08-23T07:21:30;20.80;99.90
18741;DHT22;9499;52.472;13.448;2022-08-23T07:23:56;20.90;99.90
18741;DHT22;9499;52.472;13.448;2022-08-23T07:26:23;20.90;99.90
18741;DHT22;9499;52.472;13.448;2022-08-23T07:28:50;20.90;99.90
18741;DHT22;9499;52.472;13.448;2022-08-23T07:31:21;21.00;99.90
18741;DHT22;9499;52.472;13.448;2022-08-23T07:33:48;21.00;99.90
18741;DHT22;9499;52.472;13.448;2022-08-23T07:36:18;21.00;99.90
18741;DHT22;9499;52.472;13.448;2022-08-23T07:38:45;21.00;99.90
18741;DHT22;9499;52.472;13.448;2022-08-23T07:41:12;21.10;99.90
18741;DHT22;9499;52.472;13.448;2022-08-23T07:43:39;21.20;99.90
18741;DHT22;9499;52.472;13.448;2022-08-23T07:46:07;21.30;99.90
18741;DHT22;9499;52.472;13.448;2022-08-23T07:48:34;21.40;99.90
18741;DHT22;9499;52.472;13.448;2022-08-23T07:51:03;21.40;99.90
18741;DHT22;9499;52.472;13.448;2022-08-23T07:53:32;21.50;99.90
18741;DHT22;9499;52.472;13.448;2022-08-23T07:55:59;21.60;99.90
18741;DHT22;9499;52.472;13.448;2022-08-23T07:58:29;21.60;99.90
18741;DHT22;9499;52.472;13.448;2022-08-23T08:00:55;21.70;99.90
18741;DHT22;9499;52.472;13.448;2022-08-23T08:03:22;21.70;99.90
18741;DHT22;9499;52.472;13.448;2022-08-23T08:05:48;21.70;99.90
18741;DHT22;9499;52.472;13.448;2022-08-23T08:08:15;21.70;99.90
18741;DHT22;9499;52.472;13.448;2022-08-23T08:10:43;21.70;99.90
18741;DHT22;9499;52.472;13.448;2022-08-23T08:13:10;21.70;99.90
18741;DHT22;9499;52.472;13.448;2022-08-23T08:15:40;21.80;99.90
18741;DHT22;9499;52.472;13.448;2022-08-23T08:18:07;21.90;99.90
18741;DHT22;9499;52.472;13.448;2022-08-23T08:20:34;21.90;99.90
18741;DHT22;9499;52.472;13.448;2022-08-23T08:23:01;21.90;99.90
18741;DHT22;9499;52.472;13.448;2022-08-23T08:25:28;22.10;99.90
18741;DHT22;9499;52.472;13.448;2022-08-23T08:28:00;22.20;99.90
18741;DHT22;9499;52.472;13.448;2022-08-23T08:30:27;22.30;99.90
18741;DHT22;9499;52.472;13.448;2022-08-23T08:32:53;22.30;99.90
18741;DHT22;9499;52.472;13.448;2022-08-23T08:35:20;22.40;99.90
18741;DHT22;9499;52.472;13.448;2022-08-23T08:37:46;22.40;99.90
18741;DHT22;9499;52.472;13.448;2022-08-23T08:40:14;22.40;99.90
18741;DHT22;9499;52.472;13.448;2022-08-23T08:42:57;22.50;99.90
18741;DHT22;9499;52.472;13.448;2022-08-23T08:45:39;22.50;99.90
18741;DHT22;9499;52.472;13.448;2022-08-23T08:48:12;22.50;99.90
18741;DHT22;9499;52.472;13.448;2022-08-23T08:50:43;22.50;99.90
18741;DHT22;9499;52.472;13.448;2022-08-23T08:53:13;22.60;99.90
18741;DHT22;9499;52.472;13.448;2022-08-23T08:55:43;22.60;99.90
18741;DHT22;9499;52.472;13.448;2022-08-23T08:58:14;22.70;99.90
18741;DHT22;9499;52.472;13.448;2022-08-23T09:00:43;22.80;99.90
18741;DHT22;9499;52.472;13.448;2022-08-23T09:03:13;22.70;99.90
18741;DHT22;9499;52.472;13.448;2022-08-23T09:05:50;22.70;99.90
18741;DHT22;9499;52.472;13.448;2022-08-23T09:08:32;22.80;99.90
18741;DHT22;9499;52.472;13.448;2022-08-23T09:11:15;22.80;99.90
18741;DHT22;9499;52.472;13.448;2022-08-23T09:14:06;22.70;99.90
18741;DHT22;9499;52.472;13.448;2022-08-23T09:16:47;22.80;99.90
18741;DHT22;9499;52.472;13.448;2022-08-23T09:19:15;22.80;99.90
18741;DHT22;9499;52.472;13.448;2022-08-23T09:21:45;22.80;99.90
18741;DHT22;9499;52.472;13.448;2022-08-23T09:24:12;22.80;99.90
18741;DHT22;9499;52.472;13.448;2022-08-23T09:26:40;22.80;99.90
18741;DHT22;9499;52.472;13.448;2022-08-23T09:29:16;22.80;99.90
18741;DHT22;9499;52.472;13.448;2022-08-23T09:31:46;22.90;99.90
18741;DHT22;9499;52.472;13.448;2022-08-23T09:34:18;23.10;99.90
18741;DHT22;9499;52.472;13.448;2022-08-23T09:36:45;23.20;99.90
18741;DHT22;9499;52.472;13.448;2022-08-23T09:39:25;23.20;99.90
18741;DHT22;9499;52.472;13.448;2022-08-23T09:41:52;23.20;99.90
18741;DHT22;9499;52.472;13.448;2022-08-23T09:44:32;23.30;99.90
18741;DHT22;9499;52.472;13.448;2022-08-23T09:47:07;23.30;99.90
18741;DHT22;9499;52.472;13.448;2022-08-23T09:49:34;23.40;99.90
18741;DHT22;9499;52.472;13.448;2022-08-23T09:52:10;23.40;99.90
18741;DHT22;9499;52.472;13.448;2022-08-23T09:54:40;23.40;99.90
18741;DHT22;9499;52.472;13.448;2022-08-23T09:57:08;23.40;99.90
18741;DHT22;9499;52.472;13.448;2022-08-23T09:59:42;23.40;99.90
18741;DHT22;9499;52.472;13.448;2022-08-23T10:02:17;23.40;99.90
18741;DHT22;9499;52.472;13.448;2022-08-23T10:04:56;23.50;99.90
18741;DHT22;9499;52.472;13.448;2022-08-23T10:07:27;23.70;99.90
18741;DHT22;9499;52.472;13.448;2022-08-23T10:10:16;23.70;99.90
18741;DHT22;9499;52.472;13.448;2022-08-23T10:12:44;23.80;99.90
18741;DHT22;9499;52.472;13.448;2022-08-23T10:15:11;23.80;99.90
18741;DHT22;9499;52.472;13.448;2022-08-23T10:17:48;23.90;99.90
18741;DHT22;9499;52.472;13.448;2022-08-23T10:20:28;23.90;99.90
18741;DHT22;9499;52.472;13.448;2022-08-23T10:23:05;23.90;99.90
18741;DHT22;9499;52.472;13.448;2022-08-23T10:25:41;23.90;99.90
18741;DHT22;9499;52.472;13.448;2022-08-23T10:28:16;24.00;99.90
18741;DHT22;9499;52.472;13.448;2022-08-23T10:31:06;24.10;99.90
18741;DHT22;9499;52.472;13.448;2022-08-23T10:33:42;24.20;99.90
18741;DHT22;9499;52.472;13.448;2022-08-23T10:36:15;24.20;99.90
18741;DHT22;9499;52.472;13.448;2022-08-23T10:38:45;24.20;99.90
18741;DHT22;9499;52.472;13.448;2022-08-23T10:41:19;24.20;99.90
18741;DHT22;9499;52.472;13.448;2022-08-23T10:43:53;24.30;99.90
18741;DHT22;9499;52.472;13.448;2022-08-23T10:46:24;24.30;99.90
18741;DHT22;9499;52.472;13.448;2022-08-23T10:48:57;24.40;99.90
18741;DHT22;9499;52.472;13.448;2022-08-23T10:51:26;24.40;99.90
18741;DHT22;9499;52.472;13.448;2022-08-23T10:53:57;24.50;99.90
18741;DHT22;9499;52.472;13.448;2022-08-23T10:56:26;24.60;99.90
18741;DHT22;9499;52.472;13.448;2022-08-23T10:58:54;24.70;99.90
18741;DHT22;9499;52.472;13.448;2022-08-23T11:01:24;24.90;99.90
18741;DHT22;9499;52.472;13.448;2022-08-23T11:04:00;24.80;99.90
18741;DHT22;9499;52.472;13.448;2022-08-23T11:06:42;24.80;99.90
18741;DHT22;9499;52.472;13.448;2022-08-23T11:09:30;24.80;99.90
18741;DHT22;9499;52.472;13.448;2022-08-23T11:12:12;24.70;99.90
18741;DHT22;9499;52.472;13.448;2022-08-23T11:14:44;24.80;99.90
18741;DHT22;9499;52.472;13.448;2022-08-23T11:17:24;24.80;99.90
18741;DHT22;9499;52.472;13.448;2022-08-23T11:19:53;24.80;99.90
18741;DHT22;9499;52.472;13.448;2022-08-23T11:22:22;24.80;99.90
18741;DHT22;9499;52.472;13.448;2022-08-23T11:24:52;24.80;99.90
18741;DHT22;9499;52.472;13.448;2022-08-23T11:27:31;25.00;99.90
18741;DHT22;9499;52.472;13.448;2022-08-23T11:32:59;25.20;99.90
18741;DHT22;9499;52.472;13.448;2022-08-23T11:35:42;25.20;99.90
18741;DHT22;9499;52.472;13.448;2022-08-23T11:38:09;25.20;99.90
18741;DHT22;9499;52.472;13.448;2022-08-23T11:40:58;25.10;99.90
18741;DHT22;9499;52.472;13.448;2022-08-23T11:43:28;25.00;99.90
18741;DHT22;9499;52.472;13.448;2022-08-23T11:46:14;25.10;99.90
18741;DHT22;9499;52.472;13.448;2022-08-23T11:48:44;25.10;99.90
18741;DHT22;9499;52.472;13.448;2022-08-23T11:51:23;25.20;99.90
18741;DHT22;9499;52.472;13.448;2022-08-23T11:54:16;25.50;99.90
18741;DHT22;9499;52.472;13.448;2022-08-23T11:57:08;25.90;99.90
18741;DHT22;9499;52.472;13.448;2022-08-23T12:00:00;26.50;99.90
18741;DHT22;9499;52.472;13.448;2022-08-23T12:02:50;27.00;99.90
18741;DHT22;9499;52.472;13.448;2022-08-23T12:05:25;27.40;99.90
18741;DHT22;9499;52.472;13.448;2022-08-23T12:08:30;27.60;99.90
18741;DHT22;9499;52.472;13.448;2022-08-23T12:11:06;27.60;99.90
18741;DHT22;9499;52.472;13.448;2022-08-23T12:13:58;27.80;99.90
18741;DHT22;9499;52.472;13.448;2022-08-23T12:16:36;28.10;99.90
18741;DHT22;9499;52.472;13.448;2022-08-23T12:19:08;28.00;99.90
18741;DHT22;9499;52.472;13.448;2022-08-23T12:21:42;27.80;99.90
18741;DHT22;9499;52.472;13.448;2022-08-23T12:24:17;27.80;99.90
18741;DHT22;9499;52.472;13.448;2022-08-23T12:27:02;27.90;99.90
18741;DHT22;9499;52.472;13.448;2022-08-23T12:29:51;28.00;99.90
18741;DHT22;9499;52.472;13.448;2022-08-23T12:32:20;28.20;99.90
18741;DHT22;9499;52.472;13.448;2022-08-23T12:34:56;28.30;99.90
18741;DHT22;9499;52.472;13.448;2022-08-23T12:37:32;28.40;99.90
18741;DHT22;9499;52.472;13.448;2022-08-23T12:40:06;28.50;99.90
18741;DHT22;9499;52.472;13.448;2022-08-23T12:42:36;28.50;99.90
18741;DHT22;9499;52.472;13.448;2022-08-23T12:45:07;28.60;99.90
18741;DHT22;9499;52.472;13.448;2022-08-23T12:47:36;28.50;99.90
18741;DHT22;9499;52.472;13.448;2022-08-23T12:50:18;28.10;99.90
18741;DHT22;9499;52.472;13.448;2022-08-23T12:52:55;27.80;99.90
18741;DHT22;9499;52.472;13.448;2022-08-23T12:55:28;27.50;99.90
18741;DHT22;9499;52.472;13.448;2022-08-23T12:57:55;27.70;99.90
18741;DHT22;9499;52.472;13.448;2022-08-23T13:00:32;28.00;99.90
18741;DHT22;9499;52.472;13.448;2022-08-23T13:03:02;28.20;99.90
18741;DHT22;9499;52.472;13.448;2022-08-23T13:05:36;28.30;99.90
18741;DHT22;9499;52.472;13.448;2022-08-23T13:08:07;28.70;99.90
18741;DHT22;9499;52.472;13.448;2022-08-23T13:10:37;29.00;99.90
18741;DHT22;9499;52.472;13.448;2022-08-23T13:13:04;29.30;99.90
18741;DHT22;9499;52.472;13.448;2022-08-23T13:15:55;29.50;99.90
18741;DHT22;9499;52.472;13.448;2022-08-23T13:18:28;29.60;99.90
18741;DHT22;9499;52.472;13.448;2022-08-23T13:21:17;29.30;99.90
18741;DHT22;9499;52.472;13.448;2022-08-23T13:23:45;28.80;99.90
18741;DHT22;9499;52.472;13.448;2022-08-23T13:26:43;28.50;99.90
18741;DHT22;9499;52.472;13.448;2022-08-23T13:29:20;28.60;99.90
18741;DHT22;9499;52.472;13.448;2022-08-23T13:31:52;28.70;99.90
18741;DHT22;9499;52.472;13.448;2022-08-23T13:34:33;29.00;99.90
18741;DHT22;9499;52.472;13.448;2022-08-23T13:37:02;29.40;99.90
18741;DHT22;9499;52.472;13.448;2022-08-23T13:39:31;29.60;99.90
18741;DHT22;9499;52.472;13.448;2022-08-23T13:41:59;29.90;99.90
18741;DHT22;9499;52.472;13.448;2022-08-23T13:44:26;29.90;99.90
18741;DHT22;9499;52.472;13.448;2022-08-23T13:46:55;29.90;99.90
18741;DHT22;9499;52.472;13.448;2022-08-23T13:49:25;30.00;99.90
18741;DHT22;9499;52.472;13.448;2022-08-23T13:52:06;30.20;99.90
18741;DHT22;9499;52.472;13.448;2022-08-23T13:54:33;30.30;99.90
18741;DHT22;9499;52.472;13.448;2022-08-23T13:57:04;30.30;99.90
18741;DHT22;9499;52.472;13.448;2022-08-23T13:59:35;30.10;99.90
18741;DHT22;9499;52.472;13.448;2022-08-23T14:02:04;30.30;99.90
18741;DHT22;9499;52.472;13.448;2022-08-23T14:04:31;30.50;99.90
18741;DHT22;9499;52.472;13.448;2022-08-23T14:06:58;30.80;99.90
18741;DHT22;9499;52.472;13.448;2022-08-23T14:09:25;30.80;99.90
18741;DHT22;9499;52.472;13.448;2022-08-23T14:11:54;30.50;99.90
18741;DHT22;9499;52.472;13.448;2022-08-23T14:14:25;30.10;99.90
18741;DHT22;9499;52.472;13.448;2022-08-23T14:16:55;29.80;99.90
18741;DHT22;9499;52.472;13.448;2022-08-23T14:19:22;29.60;99.90
18741;DHT22;9499;52.472;13.448;2022-08-23T14:21:49;29.30;99.90
18741;DHT22;9499;52.472;13.448;2022-08-23T14:24:15;29.00;99.90
18741;DHT22;9499;52.472;13.448;2022-08-23T14:26:42;28.90;99.90
18741;DHT22;9499;52.472;13.448;2022-08-23T14:29:09;29.20;99.90
18741;DHT22;9499;52.472;13.448;2022-08-23T14:31:37;29.50;99.90
18741;DHT22;9499;52.472;13.448;2022-08-23T14:34:03;29.70;99.90
18741;DHT22;9499;52.472;13.448;2022-08-23T14:36:30;29.50;99.90
18741;DHT22;9499;52.472;13.448;2022-08-23T14:38:57;29.20;99.90
18741;DHT22;9499;52.472;13.448;2022-08-23T14:41:25;28.90;99.90
18741;DHT22;9499;52.472;13.448;2022-08-23T14:43:53;28.70;99.90
18741;DHT22;9499;52.472;13.448;2022-08-23T14:46:20;28.60;99.90
18741;DHT22;9499;52.472;13.448;2022-08-23T14:48:49;28.40;99.90
18741;DHT22;9499;52.472;13.448;2022-08-23T14:51:23;28.40;99.90
18741;DHT22;9499;52.472;13.448;2022-08-23T14:53:50;28.50;99.90
18741;DHT22;9499;52.472;13.448;2022-08-23T14:56:16;28.80;99.90
18741;DHT22;9499;52.472;13.448;2022-08-23T14:58:43;28.80;99.90
18741;DHT22;9499;52.472;13.448;2022-08-23T15:01:10;28.70;99.90
18741;DHT22;9499;52.472;13.448;2022-08-23T15:03:37;28.60;99.90
18741;DHT22;9499;52.472;13.448;2022-08-23T15:06:07;28.60;99.90
18741;DHT22;9499;52.472;13.448;2022-08-23T15:08:34;28.70;99.90
18741;DHT22;9499;52.472;13.448;2022-08-23T15:11:00;28.90;99.90
18741;DHT22;9499;52.472;13.448;2022-08-23T15:13:28;29.20;99.90
18741;DHT22;9499;52.472;13.448;2022-08-23T15:15:55;29.50;99.90
18741;DHT22;9499;52.472;13.448;2022-08-23T15:18:22;29.80;99.90
18741;DHT22;9499;52.472;13.448;2022-08-23T15:20:49;30.20;99.90
18741;DHT22;9499;52.472;13.448;2022-08-23T15:23:17;30.50;99.90
18741;DHT22;9499;52.472;13.448;2022-08-23T15:25:44;30.60;99.90
18741;DHT22;9499;52.472;13.448;2022-08-23T15:28:12;30.50;99.90
18741;DHT22;9499;52.472;13.448;2022-08-23T15:30:39;30.20;99.90
18741;DHT22;9499;52.472;13.448;2022-08-23T15:33:06;29.80;99.90
18741;DHT22;9499;52.472;13.448;2022-08-23T15:35:37;29.50;99.90
18741;DHT22;9499;52.472;13.448;2022-08-23T15:38:04;29.70;99.90
18741;DHT22;9499;52.472;13.448;2022-08-23T15:40:32;29.90;99.90
18741;DHT22;9499;52.472;13.448;2022-08-23T15:42:59;30.10;99.90
18741;DHT22;9499;52.472;13.448;2022-08-23T15:45:27;30.00;99.90
18741;DHT22;9499;52.472;13.448;2022-08-23T15:47:55;30.10;99.90
18741;DHT22;9499;52.472;13.448;2022-08-23T15:50:25;30.30;99.90
18741;DHT22;9499;52.472;13.448;2022-08-23T15:52:52;30.40;99.90